Terminal Aerodrome Forecast
Issued by NWS Burlington, VT

Home | Current Version | Previous Version | Text Only | Print | Product List | Glossary On
Versions: 1 2 3 4 5 6 7 8 9 10 11 12 13 14 15 16
000
FTUS41 KBTV 200558 AAA
TAFBTV
TAF AMD
KBTV 200558Z 2006/2106 19011G19KT P6SM -RA SCT015 OVC040
      TEMPO 2006/2009 BKN015
     FM200900 18011G17KT P6SM -RA SCT015 OVC025
     FM201200 18009KT 3SM -RA BR OVC022
     FM201400 18009KT 2SM -RA BR OVC015
     FM201900 18012G18KT 3SM BR VCSH OVC020
     FM210200 19012G18KT P6SM VCSH OVC020=

USA.gov is the U.S. government's official web portal to all federal, state and local government web resources and services.